N311TY KONT-KSNA
Flight info
| Callsign | N311TY |
|---|---|
| Flight time | 0h 10m |
| Altitude | 4000 |
| Route | PDZ V388 RNDAL V363 POXKU V8 SLI |
| Aircraft | C408/M-SDFGRY/S |
Departure
| Time | 2026-05-07 04:12 |
|---|---|
| Airport | Ontario International Airport (KONT) |
Arrival
| Time | 2026-05-07 04:22 |
|---|---|
| Airport | John Wayne Orange County International Airport (KSNA) |
| Time | Latitude | Longitude | Altitude | Speed | Heading |
|---|---|---|---|---|---|
| 2026-05-07 04:09 | 34.05407 | -117.58272 | 926 ft | 0 kts | 0° |
| 2026-05-07 04:10 | 34.05408 | -117.58272 | 926 ft | 2 kts | 0° |
| 2026-05-07 04:11 | 34.05465 | -117.58273 | 926 ft | 12 kts | 347° |
| 2026-05-07 04:11 | 34.05498 | -117.58347 | 925 ft | 14 kts | 271° |
| 2026-05-07 04:11 | 34.05497 | -117.58655 | 929 ft | 65 kts | 270° |
| 2026-05-07 04:11 | 34.05494 | -117.59414 | 927 ft | 112 kts | 269° |
| 2026-05-07 04:12 | 34.05509 | -117.60470 | 1053 ft | 136 kts | 271° |
| 2026-05-07 04:12 | 34.05441 | -117.61662 | 1236 ft | 149 kts | 251° |
| 2026-05-07 04:12 | 34.05106 | -117.62756 | 1880 ft | 129 kts | 251° |
| 2026-05-07 04:12 | 34.04830 | -117.63702 | 2463 ft | 115 kts | 251° |
| 2026-05-07 04:13 | 34.04555 | -117.64627 | 2838 ft | 117 kts | 251° |
| 2026-05-07 04:13 | 34.04286 | -117.65507 | 3278 ft | 110 kts | 250° |
| 2026-05-07 04:13 | 34.04025 | -117.66390 | 3608 ft | 112 kts | 251° |
| 2026-05-07 04:13 | 34.03764 | -117.67275 | 3954 ft | 113 kts | 251° |
| 2026-05-07 04:14 | 34.03249 | -117.68064 | 4052 ft | 138 kts | 205° |
| 2026-05-07 04:14 | 34.02307 | -117.68491 | 4111 ft | 162 kts | 200° |
| 2026-05-07 04:14 | 34.01128 | -117.68891 | 4149 ft | 176 kts | 193° |
| 2026-05-07 04:14 | 33.99891 | -117.69179 | 4157 ft | 191 kts | 193° |
| 2026-05-07 04:15 | 33.98607 | -117.69550 | 4205 ft | 186 kts | 194° |
| 2026-05-07 04:15 | 33.97400 | -117.69970 | 4301 ft | 181 kts | 200° |
| 2026-05-07 04:15 | 33.96162 | -117.70479 | 4075 ft | 192 kts | 198° |
| 2026-05-07 04:15 | 33.94862 | -117.70912 | 3914 ft | 194 kts | 194° |
| 2026-05-07 04:16 | 33.93528 | -117.71117 | 3749 ft | 195 kts | 183° |
| 2026-05-07 04:16 | 33.92191 | -117.71280 | 3706 ft | 189 kts | 194° |
| 2026-05-07 04:16 | 33.90997 | -117.71926 | 3640 ft | 189 kts | 208° |
| 2026-05-07 04:16 | 33.89872 | -117.72608 | 3812 ft | 179 kts | 207° |
| 2026-05-07 04:17 | 33.88825 | -117.73300 | 4106 ft | 168 kts | 212° |
| 2026-05-07 04:17 | 33.87780 | -117.74016 | 4083 ft | 179 kts | 210° |
| 2026-05-07 04:17 | 33.86663 | -117.74723 | 4019 ft | 187 kts | 208° |
| 2026-05-07 04:17 | 33.85493 | -117.75473 | 3840 ft | 194 kts | 209° |
| 2026-05-07 04:18 | 33.84281 | -117.76248 | 3590 ft | 199 kts | 208° |
| 2026-05-07 04:18 | 33.83053 | -117.77025 | 3331 ft | 200 kts | 208° |
| 2026-05-07 04:18 | 33.81853 | -117.77794 | 3060 ft | 192 kts | 210° |
| 2026-05-07 04:18 | 33.80675 | -117.78547 | 2793 ft | 191 kts | 209° |
| 2026-05-07 04:19 | 33.79504 | -117.79293 | 2539 ft | 190 kts | 209° |
| 2026-05-07 04:19 | 33.78336 | -117.80036 | 2298 ft | 189 kts | 208° |
| 2026-05-07 04:19 | 33.77172 | -117.80776 | 2048 ft | 188 kts | 209° |
| 2026-05-07 04:19 | 33.76018 | -117.81510 | 1793 ft | 187 kts | 209° |
| 2026-05-07 04:20 | 33.74873 | -117.82239 | 1557 ft | 186 kts | 208° |
| 2026-05-07 04:20 | 33.73765 | -117.82943 | 1310 ft | 162 kts | 208° |
| 2026-05-07 04:20 | 33.72845 | -117.83525 | 1088 ft | 144 kts | 209° |
| 2026-05-07 04:21 | 33.71157 | -117.84598 | 750 ft | 132 kts | 208° |
| 2026-05-07 04:21 | 33.70381 | -117.85090 | 573 ft | 122 kts | 208° |
| 2026-05-07 04:21 | 33.69637 | -117.85560 | 403 ft | 120 kts | 207° |
| 2026-05-07 04:21 | 33.68902 | -117.86022 | 297 ft | 118 kts | 209° |
| 2026-05-07 04:22 | 33.68196 | -117.86476 | 134 ft | 110 kts | 210° |
| 2026-05-07 04:22 | 33.67617 | -117.86855 | 58 ft | 78 kts | 210° |
| 2026-05-07 04:22 | 33.67428 | -117.86982 | 57 ft | 13 kts | 218° |
| 2026-05-07 04:22 | 33.67418 | -117.87067 | 56 ft | 12 kts | 297° |
| 2026-05-07 04:23 | 33.67430 | -117.87095 | 50 ft | 0 kts | 296° |
| 2026-05-07 04:23 | 33.67431 | -117.87096 | 51 ft | 2 kts | 296° |
| 2026-05-07 04:23 | 33.67471 | -117.87178 | 51 ft | 14 kts | 310° |
| 2026-05-07 04:23 | 33.67491 | -117.87207 | 54 ft | 0 kts | 310° |